sensor_id;sensor_type;location;lat;lon;timestamp;P1;durP1;ratioP1;P2;durP2;ratioP2
13698;SDS011;6921;53.642;9.956;2022-07-10T00:01:16;2.15;;;1.05;;
13698;SDS011;6921;53.642;9.956;2022-07-10T00:03:21;4.60;;;1.15;;
13698;SDS011;6921;53.642;9.956;2022-07-10T00:05:25;5.10;;;1.10;;
13698;SDS011;6921;53.642;9.956;2022-07-10T00:07:28;5.30;;;1.17;;
13698;SDS011;6921;53.642;9.956;2022-07-10T00:09:31;6.78;;;1.30;;
13698;SDS011;6921;53.642;9.956;2022-07-10T00:11:34;3.10;;;0.90;;
13698;SDS011;6921;53.642;9.956;2022-07-10T00:13:37;3.90;;;0.65;;
13698;SDS011;6921;53.642;9.956;2022-07-10T00:15:40;5.25;;;1.02;;
13698;SDS011;6921;53.642;9.956;2022-07-10T00:17:45;3.70;;;1.00;;
13698;SDS011;6921;53.642;9.956;2022-07-10T00:19:50;4.50;;;1.17;;
13698;SDS011;6921;53.642;9.956;2022-07-10T00:21:55;4.15;;;1.10;;
13698;SDS011;6921;53.642;9.956;2022-07-10T00:24:01;4.20;;;1.10;;
13698;SDS011;6921;53.642;9.956;2022-07-10T00:26:07;5.30;;;1.10;;
13698;SDS011;6921;53.642;9.956;2022-07-10T00:29:04;5.60;;;1.23;;
13698;SDS011;6921;53.642;9.956;2022-07-10T00:31:07;3.38;;;0.88;;
13698;SDS011;6921;53.642;9.956;2022-07-10T00:33:11;3.40;;;0.98;;
13698;SDS011;6921;53.642;9.956;2022-07-10T00:35:16;4.55;;;0.90;;
13698;SDS011;6921;53.642;9.956;2022-07-10T00:37:19;4.72;;;1.02;;
13698;SDS011;6921;53.642;9.956;2022-07-10T00:39:23;3.97;;;0.95;;
13698;SDS011;6921;53.642;9.956;2022-07-10T00:41:27;6.97;;;1.20;;
13698;SDS011;6921;53.642;9.956;2022-07-10T00:43:31;4.30;;;1.40;;
13698;SDS011;6921;53.642;9.956;2022-07-10T00:45:53;3.53;;;0.95;;
13698;SDS011;6921;53.642;9.956;2022-07-10T00:47:57;7.35;;;1.00;;
13698;SDS011;6921;53.642;9.956;2022-07-10T00:50:01;4.20;;;0.95;;
13698;SDS011;6921;53.642;9.956;2022-07-10T00:52:07;5.32;;;1.25;;
13698;SDS011;6921;53.642;9.956;2022-07-10T00:54:13;5.45;;;1.10;;
13698;SDS011;6921;53.642;9.956;2022-07-10T00:56:20;5.03;;;1.02;;
13698;SDS011;6921;53.642;9.956;2022-07-10T00:58:26;4.90;;;1.08;;
13698;SDS011;6921;53.642;9.956;2022-07-10T01:00:32;3.22;;;0.90;;
13698;SDS011;6921;53.642;9.956;2022-07-10T01:02:39;5.28;;;1.10;;
13698;SDS011;6921;53.642;9.956;2022-07-10T01:04:46;3.95;;;1.13;;
13698;SDS011;6921;53.642;9.956;2022-07-10T01:06:49;5.18;;;1.10;;
13698;SDS011;6921;53.642;9.956;2022-07-10T01:08:56;4.07;;;1.02;;
13698;SDS011;6921;53.642;9.956;2022-07-10T01:11:02;6.05;;;1.33;;
13698;SDS011;6921;53.642;9.956;2022-07-10T01:13:08;4.18;;;1.02;;
13698;SDS011;6921;53.642;9.956;2022-07-10T01:15:11;3.17;;;1.05;;
13698;SDS011;6921;53.642;9.956;2022-07-10T01:17:15;5.15;;;1.13;;
13698;SDS011;6921;53.642;9.956;2022-07-10T01:19:19;4.32;;;1.13;;
13698;SDS011;6921;53.642;9.956;2022-07-10T01:21:27;4.18;;;1.05;;
13698;SDS011;6921;53.642;9.956;2022-07-10T01:23:32;3.33;;;1.20;;
13698;SDS011;6921;53.642;9.956;2022-07-10T01:25:35;2.95;;;1.08;;
13698;SDS011;6921;53.642;9.956;2022-07-10T01:27:39;4.43;;;1.20;;
13698;SDS011;6921;53.642;9.956;2022-07-10T01:29:41;6.05;;;1.30;;
13698;SDS011;6921;53.642;9.956;2022-07-10T01:31:48;6.25;;;1.25;;
13698;SDS011;6921;53.642;9.956;2022-07-10T01:33:58;7.53;;;1.27;;
13698;SDS011;6921;53.642;9.956;2022-07-10T01:36:05;2.33;;;0.90;;
13698;SDS011;6921;53.642;9.956;2022-07-10T01:38:10;2.78;;;1.20;;
13698;SDS011;6921;53.642;9.956;2022-07-10T01:40:13;5.32;;;1.10;;
13698;SDS011;6921;53.642;9.956;2022-07-10T01:42:16;4.47;;;0.95;;
13698;SDS011;6921;53.642;9.956;2022-07-10T01:44:19;3.42;;;1.00;;
13698;SDS011;6921;53.642;9.956;2022-07-10T01:46:22;5.05;;;0.98;;
13698;SDS011;6921;53.642;9.956;2022-07-10T01:48:26;6.28;;;1.40;;
13698;SDS011;6921;53.642;9.956;2022-07-10T01:50:29;16.08;;;1.52;;
13698;SDS011;6921;53.642;9.956;2022-07-10T01:52:32;4.85;;;1.80;;
13698;SDS011;6921;53.642;9.956;2022-07-10T01:54:37;3.75;;;0.85;;
13698;SDS011;6921;53.642;9.956;2022-07-10T01:56:40;3.08;;;1.00;;
13698;SDS011;6921;53.642;9.956;2022-07-10T01:58:43;5.38;;;1.42;;
13698;SDS011;6921;53.642;9.956;2022-07-10T02:00:46;4.40;;;1.00;;
13698;SDS011;6921;53.642;9.956;2022-07-10T02:02:49;6.45;;;1.40;;
13698;SDS011;6921;53.642;9.956;2022-07-10T02:05:06;6.60;;;1.30;;
13698;SDS011;6921;53.642;9.956;2022-07-10T02:07:10;7.03;;;1.27;;
13698;SDS011;6921;53.642;9.956;2022-07-10T02:09:14;2.47;;;1.10;;
13698;SDS011;6921;53.642;9.956;2022-07-10T02:11:19;6.75;;;1.60;;
13698;SDS011;6921;53.642;9.956;2022-07-10T02:13:22;5.50;;;1.40;;
13698;SDS011;6921;53.642;9.956;2022-07-10T02:15:28;4.03;;;1.05;;
13698;SDS011;6921;53.642;9.956;2022-07-10T02:17:31;5.90;;;1.38;;
13698;SDS011;6921;53.642;9.956;2022-07-10T02:19:34;6.55;;;1.42;;
13698;SDS011;6921;53.642;9.956;2022-07-10T02:21:37;6.60;;;1.42;;
13698;SDS011;6921;53.642;9.956;2022-07-10T02:23:40;3.95;;;1.13;;
13698;SDS011;6921;53.642;9.956;2022-07-10T02:25:43;5.03;;;1.33;;
13698;SDS011;6921;53.642;9.956;2022-07-10T02:27:48;4.53;;;1.35;;
13698;SDS011;6921;53.642;9.956;2022-07-10T02:29:51;6.72;;;1.40;;
13698;SDS011;6921;53.642;9.956;2022-07-10T02:31:54;6.00;;;1.40;;
13698;SDS011;6921;53.642;9.956;2022-07-10T02:33:57;7.65;;;1.55;;
13698;SDS011;6921;53.642;9.956;2022-07-10T02:36:00;6.93;;;1.77;;
13698;SDS011;6921;53.642;9.956;2022-07-10T02:38:03;5.63;;;1.75;;
13698;SDS011;6921;53.642;9.956;2022-07-10T02:40:06;5.15;;;1.60;;
13698;SDS011;6921;53.642;9.956;2022-07-10T02:42:10;2.30;;;1.27;;
13698;SDS011;6921;53.642;9.956;2022-07-10T02:44:15;7.82;;;1.67;;
13698;SDS011;6921;53.642;9.956;2022-07-10T02:46:18;6.90;;;1.67;;
13698;SDS011;6921;53.642;9.956;2022-07-10T02:48:21;8.57;;;1.98;;
13698;SDS011;6921;53.642;9.956;2022-07-10T02:50:24;5.95;;;1.45;;
13698;SDS011;6921;53.642;9.956;2022-07-10T02:52:26;7.68;;;1.50;;
13698;SDS011;6921;53.642;9.956;2022-07-10T02:54:31;8.43;;;2.00;;
13698;SDS011;6921;53.642;9.956;2022-07-10T02:56:34;5.78;;;1.70;;
13698;SDS011;6921;53.642;9.956;2022-07-10T02:58:38;5.00;;;1.75;;
13698;SDS011;6921;53.642;9.956;2022-07-10T03:00:45;8.43;;;2.22;;
13698;SDS011;6921;53.642;9.956;2022-07-10T03:02:48;5.80;;;1.75;;
13698;SDS011;6921;53.642;9.956;2022-07-10T03:04:51;7.32;;;2.00;;
13698;SDS011;6921;53.642;9.956;2022-07-10T03:06:54;8.43;;;2.25;;
13698;SDS011;6921;53.642;9.956;2022-07-10T03:08:57;5.78;;;1.90;;
13698;SDS011;6921;53.642;9.956;2022-07-10T03:11:00;8.80;;;2.00;;
13698;SDS011;6921;53.642;9.956;2022-07-10T03:13:03;7.38;;;2.03;;
13698;SDS011;6921;53.642;9.956;2022-07-10T03:15:06;8.52;;;2.40;;
13698;SDS011;6921;53.642;9.956;2022-07-10T03:17:11;7.95;;;2.17;;
13698;SDS011;6921;53.642;9.956;2022-07-10T03:19:14;9.95;;;1.90;;
13698;SDS011;6921;53.642;9.956;2022-07-10T03:21:17;12.70;;;2.25;;
13698;SDS011;6921;53.642;9.956;2022-07-10T03:23:22;6.47;;;1.90;;
13698;SDS011;6921;53.642;9.956;2022-07-10T03:25:25;7.03;;;2.13;;
13698;SDS011;6921;53.642;9.956;2022-07-10T03:27:28;9.80;;;2.20;;
13698;SDS011;6921;53.642;9.956;2022-07-10T03:29:33;6.80;;;1.83;;
13698;SDS011;6921;53.642;9.956;2022-07-10T03:31:39;7.15;;;1.80;;
13698;SDS011;6921;53.642;9.956;2022-07-10T03:33:48;8.20;;;2.17;;
13698;SDS011;6921;53.642;9.956;2022-07-10T03:35:54;9.07;;;2.10;;
13698;SDS011;6921;53.642;9.956;2022-07-10T03:37:59;8.13;;;2.10;;
13698;SDS011;6921;53.642;9.956;2022-07-10T03:40:05;10.27;;;2.40;;
13698;SDS011;6921;53.642;9.956;2022-07-10T03:42:08;7.95;;;2.08;;
13698;SDS011;6921;53.642;9.956;2022-07-10T03:44:14;3.65;;;1.75;;
13698;SDS011;6921;53.642;9.956;2022-07-10T03:46:17;7.93;;;2.55;;
13698;SDS011;6921;53.642;9.956;2022-07-10T03:48:20;7.95;;;2.30;;
13698;SDS011;6921;53.642;9.956;2022-07-10T03:50:25;9.68;;;2.30;;
13698;SDS011;6921;53.642;9.956;2022-07-10T03:52:28;8.05;;;2.20;;
13698;SDS011;6921;53.642;9.956;2022-07-10T03:54:31;8.13;;;2.20;;
13698;SDS011;6921;53.642;9.956;2022-07-10T03:56:34;5.93;;;2.17;;
13698;SDS011;6921;53.642;9.956;2022-07-10T03:58:55;8.95;;;2.45;;
13698;SDS011;6921;53.642;9.956;2022-07-10T04:00:58;7.63;;;2.40;;
13698;SDS011;6921;53.642;9.956;2022-07-10T04:03:02;9.18;;;2.03;;
13698;SDS011;6921;53.642;9.956;2022-07-10T04:05:06;9.88;;;2.50;;
13698;SDS011;6921;53.642;9.956;2022-07-10T04:07:13;5.47;;;1.83;;
13698;SDS011;6921;53.642;9.956;2022-07-10T04:09:19;7.07;;;2.22;;
13698;SDS011;6921;53.642;9.956;2022-07-10T04:11:22;8.57;;;2.13;;
13698;SDS011;6921;53.642;9.956;2022-07-10T04:13:25;11.00;;;1.98;;
13698;SDS011;6921;53.642;9.956;2022-07-10T04:15:28;6.40;;;2.08;;
13698;SDS011;6921;53.642;9.956;2022-07-10T04:17:31;7.22;;;2.20;;
13698;SDS011;6921;53.642;9.956;2022-07-10T04:19:36;8.40;;;2.17;;
13698;SDS011;6921;53.642;9.956;2022-07-10T04:21:40;9.70;;;2.60;;
13698;SDS011;6921;53.642;9.956;2022-07-10T04:23:47;9.45;;;2.47;;
13698;SDS011;6921;53.642;9.956;2022-07-10T04:25:50;11.93;;;2.83;;
13698;SDS011;6921;53.642;9.956;2022-07-10T04:27:53;6.80;;;2.30;;
13698;SDS011;6921;53.642;9.956;2022-07-10T04:29:56;8.57;;;2.42;;
13698;SDS011;6921;53.642;9.956;2022-07-10T04:32:02;7.68;;;2.28;;
13698;SDS011;6921;53.642;9.956;2022-07-10T04:34:06;11.98;;;2.30;;
13698;SDS011;6921;53.642;9.956;2022-07-10T04:36:11;12.00;;;2.85;;
13698;SDS011;6921;53.642;9.956;2022-07-10T04:38:17;10.82;;;2.72;;
13698;SDS011;6921;53.642;9.956;2022-07-10T04:40:22;8.77;;;2.33;;
13698;SDS011;6921;53.642;9.956;2022-07-10T04:42:25;7.53;;;2.20;;
13698;SDS011;6921;53.642;9.956;2022-07-10T04:44:28;12.20;;;2.50;;
13698;SDS011;6921;53.642;9.956;2022-07-10T04:46:32;9.82;;;2.72;;
13698;SDS011;6921;53.642;9.956;2022-07-10T04:48:35;10.45;;;2.53;;
13698;SDS011;6921;53.642;9.956;2022-07-10T04:50:38;9.63;;;2.20;;
13698;SDS011;6921;53.642;9.956;2022-07-10T04:52:41;8.55;;;2.45;;
13698;SDS011;6921;53.642;9.956;2022-07-10T04:54:44;7.85;;;2.70;;
13698;SDS011;6921;53.642;9.956;2022-07-10T04:56:51;10.20;;;2.58;;
13698;SDS011;6921;53.642;9.956;2022-07-10T04:58:57;8.55;;;2.35;;
13698;SDS011;6921;53.642;9.956;2022-07-10T05:01:00;11.35;;;2.78;;
13698;SDS011;6921;53.642;9.956;2022-07-10T05:03:06;12.05;;;2.88;;
13698;SDS011;6921;53.642;9.956;2022-07-10T05:05:11;10.52;;;2.55;;
13698;SDS011;6921;53.642;9.956;2022-07-10T05:07:17;7.75;;;2.75;;
13698;SDS011;6921;53.642;9.956;2022-07-10T05:09:20;8.68;;;2.17;;
13698;SDS011;6921;53.642;9.956;2022-07-10T05:11:23;13.48;;;2.72;;
13698;SDS011;6921;53.642;9.956;2022-07-10T05:13:28;12.85;;;2.40;;
13698;SDS011;6921;53.642;9.956;2022-07-10T05:15:31;9.20;;;2.38;;
13698;SDS011;6921;53.642;9.956;2022-07-10T05:17:35;14.98;;;3.22;;
13698;SDS011;6921;53.642;9.956;2022-07-10T05:19:37;13.85;;;2.50;;
13698;SDS011;6921;53.642;9.956;2022-07-10T05:21:40;9.48;;;2.47;;
13698;SDS011;6921;53.642;9.956;2022-07-10T05:23:43;8.57;;;2.30;;
13698;SDS011;6921;53.642;9.956;2022-07-10T05:25:46;10.93;;;2.25;;
13698;SDS011;6921;53.642;9.956;2022-07-10T05:27:49;7.63;;;2.55;;
13698;SDS011;6921;53.642;9.956;2022-07-10T05:29:54;9.57;;;2.55;;
13698;SDS011;6921;53.642;9.956;2022-07-10T05:31:57;7.65;;;2.63;;
13698;SDS011;6921;53.642;9.956;2022-07-10T05:33:59;10.80;;;2.60;;
13698;SDS011;6921;53.642;9.956;2022-07-10T05:36:05;12.55;;;2.92;;
13698;SDS011;6921;53.642;9.956;2022-07-10T05:38:09;12.25;;;2.38;;
13698;SDS011;6921;53.642;9.956;2022-07-10T05:40:12;10.88;;;2.38;;
13698;SDS011;6921;53.642;9.956;2022-07-10T05:42:15;12.50;;;2.63;;
13698;SDS011;6921;53.642;9.956;2022-07-10T05:44:18;9.75;;;2.38;;
13698;SDS011;6921;53.642;9.956;2022-07-10T05:46:23;11.90;;;2.30;;
13698;SDS011;6921;53.642;9.956;2022-07-10T05:48:26;9.80;;;2.22;;
13698;SDS011;6921;53.642;9.956;2022-07-10T05:50:31;14.68;;;2.88;;
13698;SDS011;6921;53.642;9.956;2022-07-10T05:52:34;9.93;;;2.55;;
13698;SDS011;6921;53.642;9.956;2022-07-10T05:54:40;8.60;;;2.38;;
13698;SDS011;6921;53.642;9.956;2022-07-10T05:56:43;9.02;;;2.55;;
13698;SDS011;6921;53.642;9.956;2022-07-10T05:58:47;8.10;;;2.20;;
13698;SDS011;6921;53.642;9.956;2022-07-10T06:00:52;10.82;;;2.53;;
13698;SDS011;6921;53.642;9.956;2022-07-10T06:02:59;11.55;;;2.38;;
13698;SDS011;6921;53.642;9.956;2022-07-10T06:05:05;10.05;;;2.65;;
13698;SDS011;6921;53.642;9.956;2022-07-10T06:07:08;10.25;;;2.53;;
13698;SDS011;6921;53.642;9.956;2022-07-10T06:09:11;10.95;;;2.63;;
13698;SDS011;6921;53.642;9.956;2022-07-10T06:11:14;8.77;;;2.50;;
13698;SDS011;6921;53.642;9.956;2022-07-10T06:13:18;6.95;;;2.10;;
13698;SDS011;6921;53.642;9.956;2022-07-10T06:15:21;9.27;;;2.15;;
13698;SDS011;6921;53.642;9.956;2022-07-10T06:17:26;9.00;;;2.17;;
13698;SDS011;6921;53.642;9.956;2022-07-10T06:19:33;8.60;;;2.35;;
13698;SDS011;6921;53.642;9.956;2022-07-10T06:21:38;9.15;;;2.45;;
13698;SDS011;6921;53.642;9.956;2022-07-10T06:23:46;8.90;;;1.92;;
13698;SDS011;6921;53.642;9.956;2022-07-10T06:25:51;8.88;;;2.50;;
13698;SDS011;6921;53.642;9.956;2022-07-10T06:27:55;7.63;;;2.08;;
13698;SDS011;6921;53.642;9.956;2022-07-10T06:30:01;9.90;;;2.03;;
13698;SDS011;6921;53.642;9.956;2022-07-10T06:32:07;7.72;;;2.40;;
13698;SDS011;6921;53.642;9.956;2022-07-10T06:34:12;10.82;;;2.28;;
13698;SDS011;6921;53.642;9.956;2022-07-10T06:36:17;9.95;;;2.42;;
13698;SDS011;6921;53.642;9.956;2022-07-10T06:38:24;10.45;;;2.55;;
13698;SDS011;6921;53.642;9.956;2022-07-10T06:40:30;7.07;;;2.17;;
13698;SDS011;6921;53.642;9.956;2022-07-10T06:42:40;11.02;;;2.10;;
13698;SDS011;6921;53.642;9.956;2022-07-10T06:44:45;11.40;;;2.08;;
13698;SDS011;6921;53.642;9.956;2022-07-10T06:46:48;8.70;;;2.30;;
13698;SDS011;6921;53.642;9.956;2022-07-10T06:49:05;10.77;;;2.10;;
13698;SDS011;6921;53.642;9.956;2022-07-10T06:51:08;11.52;;;2.20;;
13698;SDS011;6921;53.642;9.956;2022-07-10T06:53:19;9.45;;;2.38;;
13698;SDS011;6921;53.642;9.956;2022-07-10T06:55:28;9.73;;;1.85;;
13698;SDS011;6921;53.642;9.956;2022-07-10T06:57:34;6.55;;;1.73;;
13698;SDS011;6921;53.642;9.956;2022-07-10T06:59:37;11.27;;;2.45;;
13698;SDS011;6921;53.642;9.956;2022-07-10T07:01:41;8.65;;;2.08;;
13698;SDS011;6921;53.642;9.956;2022-07-10T07:03:44;8.20;;;2.35;;
13698;SDS011;6921;53.642;9.956;2022-07-10T07:05:47;9.43;;;1.90;;
13698;SDS011;6921;53.642;9.956;2022-07-10T07:07:51;7.53;;;1.90;;
13698;SDS011;6921;53.642;9.956;2022-07-10T07:09:55;6.90;;;1.98;;
13698;SDS011;6921;53.642;9.956;2022-07-10T07:11:59;9.07;;;2.22;;
13698;SDS011;6921;53.642;9.956;2022-07-10T07:14:02;8.35;;;1.52;;
13698;SDS011;6921;53.642;9.956;2022-07-10T07:16:06;9.02;;;2.00;;
13698;SDS011;6921;53.642;9.956;2022-07-10T07:18:11;11.15;;;2.45;;
13698;SDS011;6921;53.642;9.956;2022-07-10T07:20:17;7.88;;;1.70;;
13698;SDS011;6921;53.642;9.956;2022-07-10T07:22:38;10.32;;;2.28;;
13698;SDS011;6921;53.642;9.956;2022-07-10T07:25:00;8.40;;;1.67;;
13698;SDS011;6921;53.642;9.956;2022-07-10T07:27:03;8.43;;;1.85;;
13698;SDS011;6921;53.642;9.956;2022-07-10T07:29:06;9.18;;;2.05;;
13698;SDS011;6921;53.642;9.956;2022-07-10T07:31:10;10.80;;;2.30;;
13698;SDS011;6921;53.642;9.956;2022-07-10T07:33:15;14.38;;;2.10;;
13698;SDS011;6921;53.642;9.956;2022-07-10T07:35:18;6.85;;;1.90;;
13698;SDS011;6921;53.642;9.956;2022-07-10T07:37:34;8.50;;;1.90;;
13698;SDS011;6921;53.642;9.956;2022-07-10T07:39:39;7.50;;;1.83;;
13698;SDS011;6921;53.642;9.956;2022-07-10T07:41:46;5.72;;;1.73;;
13698;SDS011;6921;53.642;9.956;2022-07-10T07:43:52;9.98;;;2.03;;
13698;SDS011;6921;53.642;9.956;2022-07-10T07:45:55;7.78;;;1.90;;
13698;SDS011;6921;53.642;9.956;2022-07-10T07:47:58;8.75;;;1.67;;
13698;SDS011;6921;53.642;9.956;2022-07-10T07:50:03;6.97;;;1.88;;
13698;SDS011;6921;53.642;9.956;2022-07-10T07:52:09;5.93;;;1.45;;
13698;SDS011;6921;53.642;9.956;2022-07-10T07:54:15;6.55;;;1.60;;
13698;SDS011;6921;53.642;9.956;2022-07-10T07:56:20;11.73;;;2.17;;
13698;SDS011;6921;53.642;9.956;2022-07-10T07:58:27;7.93;;;1.40;;
13698;SDS011;6921;53.642;9.956;2022-07-10T08:00:31;9.77;;;1.80;;
13698;SDS011;6921;53.642;9.956;2022-07-10T08:02:36;8.52;;;1.60;;
13698;SDS011;6921;53.642;9.956;2022-07-10T08:04:40;8.70;;;1.90;;
13698;SDS011;6921;53.642;9.956;2022-07-10T08:06:43;6.07;;;1.55;;
13698;SDS011;6921;53.642;9.956;2022-07-10T08:08:48;7.10;;;1.95;;
13698;SDS011;6921;53.642;9.956;2022-07-10T08:10:54;6.57;;;1.80;;
13698;SDS011;6921;53.642;9.956;2022-07-10T08:12:59;5.03;;;1.60;;
13698;SDS011;6921;53.642;9.956;2022-07-10T08:15:04;6.22;;;1.77;;
13698;SDS011;6921;53.642;9.956;2022-07-10T08:17:10;7.63;;;1.88;;
13698;SDS011;6921;53.642;9.956;2022-07-10T08:19:13;4.15;;;1.10;;
13698;SDS011;6921;53.642;9.956;2022-07-10T08:21:19;5.25;;;1.60;;
13698;SDS011;6921;53.642;9.956;2022-07-10T08:23:25;10.88;;;1.67;;
13698;SDS011;6921;53.642;9.956;2022-07-10T08:25:31;5.47;;;1.58;;
13698;SDS011;6921;53.642;9.956;2022-07-10T08:27:34;8.45;;;1.75;;
13698;SDS011;6921;53.642;9.956;2022-07-10T08:29:38;8.23;;;1.80;;
13698;SDS011;6921;53.642;9.956;2022-07-10T08:31:42;8.63;;;1.80;;
13698;SDS011;6921;53.642;9.956;2022-07-10T08:33:45;4.80;;;1.50;;
13698;SDS011;6921;53.642;9.956;2022-07-10T08:35:49;9.43;;;2.17;;
13698;SDS011;6921;53.642;9.956;2022-07-10T08:37:52;10.20;;;1.65;;
13698;SDS011;6921;53.642;9.956;2022-07-10T08:39:55;4.22;;;1.27;;
13698;SDS011;6921;53.642;9.956;2022-07-10T08:41:59;4.70;;;1.48;;
13698;SDS011;6921;53.642;9.956;2022-07-10T08:44:03;3.92;;;1.45;;
13698;SDS011;6921;53.642;9.956;2022-07-10T08:46:06;5.18;;;1.50;;
13698;SDS011;6921;53.642;9.956;2022-07-10T08:48:11;8.00;;;1.58;;
13698;SDS011;6921;53.642;9.956;2022-07-10T08:50:16;8.27;;;1.80;;
13698;SDS011;6921;53.642;9.956;2022-07-10T08:52:25;7.10;;;1.20;;
13698;SDS011;6921;53.642;9.956;2022-07-10T08:54:29;8.93;;;1.40;;
13698;SDS011;6921;53.642;9.956;2022-07-10T08:56:33;5.32;;;1.48;;
13698;SDS011;6921;53.642;9.956;2022-07-10T08:58:37;7.18;;;1.38;;
13698;SDS011;6921;53.642;9.956;2022-07-10T09:00:41;5.22;;;1.20;;
13698;SDS011;6921;53.642;9.956;2022-07-10T09:02:44;4.85;;;1.55;;
13698;SDS011;6921;53.642;9.956;2022-07-10T09:04:49;6.88;;;1.20;;
13698;SDS011;6921;53.642;9.956;2022-07-10T09:06:54;6.95;;;1.42;;
13698;SDS011;6921;53.642;9.956;2022-07-10T09:08:59;5.38;;;1.10;;
13698;SDS011;6921;53.642;9.956;2022-07-10T09:11:14;6.95;;;1.20;;
13698;SDS011;6921;53.642;9.956;2022-07-10T09:13:17;7.45;;;1.70;;
13698;SDS011;6921;53.642;9.956;2022-07-10T09:15:21;5.18;;;1.40;;
13698;SDS011;6921;53.642;9.956;2022-07-10T09:17:26;7.72;;;1.83;;
13698;SDS011;6921;53.642;9.956;2022-07-10T09:19:29;5.90;;;1.50;;
13698;SDS011;6921;53.642;9.956;2022-07-10T09:21:33;6.70;;;1.70;;
13698;SDS011;6921;53.642;9.956;2022-07-10T09:23:36;5.30;;;1.73;;
13698;SDS011;6921;53.642;9.956;2022-07-10T09:25:39;5.75;;;1.52;;
13698;SDS011;6921;53.642;9.956;2022-07-10T09:27:50;5.82;;;1.45;;
13698;SDS011;6921;53.642;9.956;2022-07-10T09:29:54;6.88;;;1.77;;
13698;SDS011;6921;53.642;9.956;2022-07-10T09:31:59;6.28;;;1.65;;
13698;SDS011;6921;53.642;9.956;2022-07-10T09:34:03;5.53;;;1.40;;
13698;SDS011;6921;53.642;9.956;2022-07-10T09:36:07;6.93;;;1.80;;
13698;SDS011;6921;53.642;9.956;2022-07-10T09:38:13;7.13;;;1.63;;
13698;SDS011;6921;53.642;9.956;2022-07-10T09:40:16;8.82;;;1.52;;
13698;SDS011;6921;53.642;9.956;2022-07-10T09:42:29;6.63;;;1.45;;
13698;SDS011;6921;53.642;9.956;2022-07-10T09:44:33;9.27;;;1.40;;
13698;SDS011;6921;53.642;9.956;2022-07-10T09:46:37;8.00;;;1.65;;
13698;SDS011;6921;53.642;9.956;2022-07-10T09:48:43;5.32;;;1.23;;
13698;SDS011;6921;53.642;9.956;2022-07-10T09:50:46;7.70;;;1.30;;
13698;SDS011;6921;53.642;9.956;2022-07-10T09:52:50;7.05;;;1.33;;
13698;SDS011;6921;53.642;9.956;2022-07-10T09:54:56;6.15;;;1.40;;
13698;SDS011;6921;53.642;9.956;2022-07-10T09:57:01;7.43;;;1.40;;
13698;SDS011;6921;53.642;9.956;2022-07-10T09:59:08;5.57;;;1.35;;
13698;SDS011;6921;53.642;9.956;2022-07-10T10:01:11;5.00;;;1.20;;
13698;SDS011;6921;53.642;9.956;2022-07-10T10:03:15;8.77;;;1.60;;
13698;SDS011;6921;53.642;9.956;2022-07-10T10:05:19;4.78;;;1.20;;
13698;SDS011;6921;53.642;9.956;2022-07-10T10:07:22;6.50;;;1.80;;
13698;SDS011;6921;53.642;9.956;2022-07-10T10:09:29;4.55;;;1.08;;
13698;SDS011;6921;53.642;9.956;2022-07-10T10:11:39;5.18;;;1.10;;
13698;SDS011;6921;53.642;9.956;2022-07-10T10:13:46;5.57;;;1.13;;
13698;SDS011;6921;53.642;9.956;2022-07-10T10:15:54;4.55;;;1.08;;
13698;SDS011;6921;53.642;9.956;2022-07-10T10:17:58;4.43;;;1.00;;
13698;SDS011;6921;53.642;9.956;2022-07-10T10:20:02;5.85;;;1.30;;
13698;SDS011;6921;53.642;9.956;2022-07-10T10:22:25;4.95;;;1.30;;
13698;SDS011;6921;53.642;9.956;2022-07-10T10:24:31;3.90;;;1.15;;
13698;SDS011;6921;53.642;9.956;2022-07-10T10:26:35;2.75;;;1.13;;
13698;SDS011;6921;53.642;9.956;2022-07-10T10:28:39;5.47;;;1.10;;
13698;SDS011;6921;53.642;9.956;2022-07-10T10:30:43;6.75;;;1.33;;
13698;SDS011;6921;53.642;9.956;2022-07-10T10:32:48;3.95;;;1.17;;
13698;SDS011;6921;53.642;9.956;2022-07-10T10:34:54;4.30;;;1.35;;
13698;SDS011;6921;53.642;9.956;2022-07-10T10:36:58;3.90;;;0.82;;
13698;SDS011;6921;53.642;9.956;2022-07-10T10:39:08;5.45;;;1.25;;
13698;SDS011;6921;53.642;9.956;2022-07-10T10:41:23;2.15;;;1.08;;
13698;SDS011;6921;53.642;9.956;2022-07-10T10:43:27;8.85;;;2.35;;
13698;SDS011;6921;53.642;9.956;2022-07-10T10:45:32;3.97;;;1.52;;
13698;SDS011;6921;53.642;9.956;2022-07-10T10:50:08;7.70;;;1.27;;
13698;SDS011;6921;53.642;9.956;2022-07-10T10:52:12;5.05;;;1.30;;
13698;SDS011;6921;53.642;9.956;2022-07-10T10:54:16;4.30;;;1.20;;
13698;SDS011;6921;53.642;9.956;2022-07-10T10:56:22;6.80;;;1.45;;
13698;SDS011;6921;53.642;9.956;2022-07-10T10:58:26;3.20;;;0.90;;
13698;SDS011;6921;53.642;9.956;2022-07-10T11:00:32;6.80;;;1.15;;
13698;SDS011;6921;53.642;9.956;2022-07-10T11:02:42;5.43;;;1.00;;
13698;SDS011;6921;53.642;9.956;2022-07-10T11:04:45;5.10;;;1.40;;
13698;SDS011;6921;53.642;9.956;2022-07-10T11:06:49;4.53;;;1.20;;
13698;SDS011;6921;53.642;9.956;2022-07-10T11:08:52;4.97;;;1.20;;
13698;SDS011;6921;53.642;9.956;2022-07-10T11:11:01;5.22;;;1.33;;
13698;SDS011;6921;53.642;9.956;2022-07-10T11:13:25;4.20;;;1.45;;
13698;SDS011;6921;53.642;9.956;2022-07-10T11:15:33;3.83;;;1.40;;
13698;SDS011;6921;53.642;9.956;2022-07-10T11:17:38;5.63;;;1.30;;
13698;SDS011;6921;53.642;9.956;2022-07-10T11:19:45;5.10;;;1.30;;
13698;SDS011;6921;53.642;9.956;2022-07-10T11:24:51;4.97;;;1.00;;
13698;SDS011;6921;53.642;9.956;2022-07-10T11:27:15;4.07;;;1.10;;
13698;SDS011;6921;53.642;9.956;2022-07-10T11:29:28;3.00;;;1.20;;
13698;SDS011;6921;53.642;9.956;2022-07-10T11:31:40;3.90;;;1.27;;
13698;SDS011;6921;53.642;9.956;2022-07-10T11:33:49;4.60;;;1.40;;
13698;SDS011;6921;53.642;9.956;2022-07-10T11:35:55;3.85;;;1.13;;
13698;SDS011;6921;53.642;9.956;2022-07-10T11:38:03;4.15;;;1.35;;
13698;SDS011;6921;53.642;9.956;2022-07-10T11:40:10;3.58;;;1.10;;
13698;SDS011;6921;53.642;9.956;2022-07-10T11:42:15;5.07;;;1.35;;
13698;SDS011;6921;53.642;9.956;2022-07-10T11:44:18;4.25;;;1.15;;
13698;SDS011;6921;53.642;9.956;2022-07-10T11:46:24;4.45;;;1.33;;
13698;SDS011;6921;53.642;9.956;2022-07-10T11:48:29;3.70;;;1.17;;
13698;SDS011;6921;53.642;9.956;2022-07-10T11:50:42;9.43;;;1.45;;
13698;SDS011;6921;53.642;9.956;2022-07-10T11:52:45;3.80;;;1.13;;
13698;SDS011;6921;53.642;9.956;2022-07-10T11:54:52;4.57;;;1.05;;
13698;SDS011;6921;53.642;9.956;2022-07-10T11:56:55;3.75;;;1.35;;
13698;SDS011;6921;53.642;9.956;2022-07-10T11:58:59;4.75;;;1.20;;
13698;SDS011;6921;53.642;9.956;2022-07-10T12:01:05;8.07;;;1.30;;
13698;SDS011;6921;53.642;9.956;2022-07-10T12:03:16;5.70;;;0.90;;
13698;SDS011;6921;53.642;9.956;2022-07-10T12:05:31;4.20;;;1.27;;
13698;SDS011;6921;53.642;9.956;2022-07-10T12:07:35;4.95;;;1.00;;
13698;SDS011;6921;53.642;9.956;2022-07-10T12:09:40;3.10;;;1.00;;
13698;SDS011;6921;53.642;9.956;2022-07-10T12:11:44;5.65;;;1.52;;
13698;SDS011;6921;53.642;9.956;2022-07-10T12:14:09;2.95;;;1.13;;
13698;SDS011;6921;53.642;9.956;2022-07-10T12:16:14;5.68;;;1.63;;
13698;SDS011;6921;53.642;9.956;2022-07-10T12:18:20;5.45;;;1.23;;
13698;SDS011;6921;53.642;9.956;2022-07-10T12:20:31;4.60;;;1.27;;
13698;SDS011;6921;53.642;9.956;2022-07-10T12:22:38;7.45;;;1.20;;
13698;SDS011;6921;53.642;9.956;2022-07-10T12:24:41;3.88;;;1.38;;
13698;SDS011;6921;53.642;9.956;2022-07-10T12:26:44;4.28;;;1.38;;
13698;SDS011;6921;53.642;9.956;2022-07-10T12:28:51;7.10;;;1.75;;
13698;SDS011;6921;53.642;9.956;2022-07-10T12:30:54;6.15;;;1.20;;
13698;SDS011;6921;53.642;9.956;2022-07-10T12:33:05;5.70;;;1.27;;
13698;SDS011;6921;53.642;9.956;2022-07-10T12:35:08;4.20;;;1.60;;
13698;SDS011;6921;53.642;9.956;2022-07-10T12:37:17;6.53;;;1.73;;
13698;SDS011;6921;53.642;9.956;2022-07-10T12:39:23;5.20;;;1.50;;
13698;SDS011;6921;53.642;9.956;2022-07-10T12:41:27;7.70;;;1.27;;
13698;SDS011;6921;53.642;9.956;2022-07-10T12:43:30;5.95;;;1.60;;
13698;SDS011;6921;53.642;9.956;2022-07-10T12:45:33;5.35;;;1.20;;
13698;SDS011;6921;53.642;9.956;2022-07-10T12:47:42;4.93;;;1.10;;
13698;SDS011;6921;53.642;9.956;2022-07-10T12:49:47;5.20;;;1.20;;
13698;SDS011;6921;53.642;9.956;2022-07-10T12:51:51;5.40;;;1.50;;